Atlantis Alvarado — 9HA2203 — position and weather

sailwx.info

Track history (hours):
 
Tides and Currents Weather Stations Pressure Air Temp Water Temp Dewpoint Dewpoint Depression Visibility Wind Speed Wind Dir Waves Ship Positions

Atlantis Alvarado

Last reported at 2018-Jul-16 07:40 UTC. Time now 2018-Jul-17 05:41 UTC.
Position N 47°18' W 002°07'.

Length 92 m; draft 6.2 m.

Type: Tanker. MMSI: 248145000.

Date/timePositionNaut miles runAvg speedWind from/ knotsBaromVisibWave heightAir tempDewpointWater temp
2018-Jul-16 07:40N 47°18' W 002°07'0 0.0
2018-Jul-16 07:28N 47°18' W 002°07'0 0.0
2018-Jul-16 06:40N 47°18' W 002°07'0 0.0
2018-Jul-16 05:52N 47°18' W 002°07'0 1.1
2018-Jul-16 05:30N 47°18' W 002°07'4 8.1
2018-Jul-16 05:00N 47°16' W 002°12'510.4
2018-Jul-16 04:31N 47°12' W 002°17'5 9.8
2018-Jul-16 04:00N 47°08' W 002°22'3 6.3
2018-Jul-16 03:29N 47°09' W 002°26'0 0.1
2018-Jul-16 02:59N 47°09' W 002°27'0 0.0
2018-Jul-16 02:29N 47°09' W 002°27'0 0.0
2018-Jul-16 01:59N 47°09' W 002°27'0 0.0
2018-Jul-16 01:26N 47°09' W 002°27'0 0.1
2018-Jul-16 00:59N 47°09' W 002°27'0 0.1
2018-Jul-16 00:29N 47°09' W 002°27'0 0.0
2018-Jul-15 23:59N 47°09' W 002°27'0 0.0
2018-Jul-15 23:29N 47°09' W 002°27'0 0.0
2018-Jul-15 22:59N 47°09' W 002°27'0 0.0
2018-Jul-15 22:29N 47°09' W 002°27'0 0.0
2018-Jul-15 21:59N 47°09' W 002°27'0 0.0
2018-Jul-15 21:29N 47°09' W 002°27'0 0.0
2018-Jul-15 20:59N 47°09' W 002°27'0 0.0
2018-Jul-15 20:29N 47°09' W 002°27'0 0.1
2018-Jul-15 19:59N 47°09' W 002°27'0 0.1
2018-Jul-15 19:29N 47°09' W 002°27'0 0.0
2018-Jul-15 18:59N 47°09' W 002°27'0 0.0
2018-Jul-15 18:29N 47°09' W 002°27'0 0.0
2018-Jul-15 17:59N 47°09' W 002°27'0 0.0
2018-Jul-15 17:29N 47°09' W 002°27'0 0.1
2018-Jul-15 16:59N 47°09' W 002°26'0 0.1
2018-Jul-15 16:29N 47°09' W 002°26'0 0.0
2018-Jul-15 15:56N 47°09' W 002°26'0 0.1
2018-Jul-15 15:29N 47°09' W 002°27'0 0.0
2018-Jul-15 14:59N 47°09' W 002°27'0 0.0
2018-Jul-15 14:20N 47°09' W 002°27'0 0.0
2018-Jul-15 13:59N 47°09' W 002°27'0 0.0
2018-Jul-15 13:29N 47°09' W 002°27'0 0.1
2018-Jul-15 12:59N 47°09' W 002°27'0 0.1
2018-Jul-15 12:17N 47°09' W 002°27'0 0.0
2018-Jul-15 11:59N 47°09' W 002°27'0 0.0
2018-Jul-15 11:29N 47°09' W 002°27'0 0.0
2018-Jul-15 10:59N 47°09' W 002°27'0 0.0
2018-Jul-15 10:29N 47°09' W 002°27'0 0.0
2018-Jul-15 09:56N 47°09' W 002°27'0 0.0
2018-Jul-15 09:29N 47°09' W 002°27'0 0.0
2018-Jul-15 08:59N 47°09' W 002°27'0 0.0
2018-Jul-15 08:29N 47°09' W 002°27'0 0.0
2018-Jul-15 07:59N 47°09' W 002°27'0 0.0
2018-Jul-15 07:29N 47°09' W 002°27'0 0.0
2018-Jul-15 06:59N 47°09' W 002°27'0 0.0
2018-Jul-15 06:29N 47°09' W 002°27'0 0.0
2018-Jul-15 05:59N 47°09' W 002°27'0 0.0
2018-Jul-15 05:29N 47°09' W 002°27'0 0.0
2018-Jul-15 04:59N 47°09' W 002°27'0 0.0
2018-Jul-15 04:29N 47°09' W 002°27'0 0.0
2018-Jul-15 03:59N 47°09' W 002°27'0 0.0
2018-Jul-15 03:29N 47°09' W 002°27'0 0.0
2018-Jul-15 02:59N 47°09' W 002°27'0 0.1
2018-Jul-15 02:29N 47°09' W 002°27'0 0.0
2018-Jul-15 01:59N 47°09' W 002°27'0 0.2
2018-Jul-15 01:26N 47°09' W 002°27'0 0.0
2018-Jul-15 00:53N 47°09' W 002°27'0 0.0
2018-Jul-15 00:29N 47°09' W 002°27'0 0.0
2018-Jul-14 23:59N 47°09' W 002°27'0 0.0
2018-Jul-14 23:26N 47°09' W 002°27'0 0.0
2018-Jul-14 22:59N 47°09' W 002°27'0 0.0
2018-Jul-14 22:29N 47°09' W 002°27'0 0.0
2018-Jul-14 21:59N 47°09' W 002°27'0 0.0
2018-Jul-14 21:29N 47°09' W 002°27'0 0.0
2018-Jul-14 20:59N 47°09' W 002°27'0 0.0
2018-Jul-14 20:29N 47°09' W 002°27'0 0.0
2018-Jul-14 19:59N 47°09' W 002°27'0 0.0
2018-Jul-14 19:29N 47°09' W 002°27'0 0.0
2018-Jul-14 18:59N 47°09' W 002°27'0 0.1
2018-Jul-14 18:29N 47°09' W 002°27'0 0.0
2018-Jul-14 17:59N 47°09' W 002°27'0 0.0
2018-Jul-14 17:29N 47°09' W 002°27'0 0.0
2018-Jul-14 16:59N 47°09' W 002°27'0 0.0
2018-Jul-14 16:26N 47°09' W 002°27'0 0.0
2018-Jul-14 14:41N 47°09' W 002°27'0 0.0
2018-Jul-14 13:56N 47°09' W 002°27'0 0.0
2018-Jul-14 13:29N 47°09' W 002°27'0 0.0
2018-Jul-14 12:59N 47°09' W 002°27'0 0.1
2018-Jul-14 12:26N 47°09' W 002°27'0 0.1
2018-Jul-14 11:59N 47°09' W 002°27'0 0.1
2018-Jul-14 11:29N 47°09' W 002°27'0 0.1
2018-Jul-14 10:56N 47°09' W 002°27'0 0.0
2018-Jul-14 10:29N 47°09' W 002°27'0 0.0
2018-Jul-14 09:59N 47°09' W 002°27'0 0.0
2018-Jul-14 09:20N 47°09' W 002°27'0 0.0
2018-Jul-14 08:59N 47°09' W 002°27'0 0.0
2018-Jul-14 08:29N 47°09' W 002°27'0 0.4
2018-Jul-14 08:00N 47°09' W 002°27'4 8.1
2018-Jul-14 07:30N 47°05' W 002°27'4 9.0
2018-Jul-14 07:00N 47°02' W 002°32'5 9.5
2018-Jul-14 06:30N 46°59' W 002°37'5 9.7
2018-Jul-14 06:00N 46°55' W 002°41'5 9.8
2018-Jul-14 05:30N 46°50' W 002°42'510.1
2018-Jul-14 05:00N 46°45' W 002°42'510.2
2018-Jul-14 04:30N 46°40' W 002°43'5 9.8
2018-Jul-14 04:00N 46°35' W 002°44'5 9.7
2018-Jul-14 03:30N 46°30' W 002°44'510.1
2018-Jul-14 03:00N 46°25' W 002°45'610.2
2018-Jul-14 02:27N 46°19' W 002°46'510.5
2018-Jul-14 02:00N 46°15' W 002°46'610.7
2018-Jul-14 01:29N 46°09' W 002°47'610.8
2018-Jul-14 00:58N 46°04' W 002°47'1911.1
2018-Jul-13 23:16N 45°45' W 002°50'711.0
2018-Jul-13 22:38N 45°38' W 002°50'210.9
2018-Jul-13 22:29N 45°36' W 002°50'510.5
2018-Jul-13 22:00N 45°31' W 002°51'510.5
2018-Jul-13 21:31N 45°26' W 002°52'510.7
2018-Jul-13 21:00N 45°21' W 002°53'510.3
2018-Jul-13 20:31N 45°16' W 002°54'510.3
2018-Jul-13 20:00N 45°10' W 002°54'5 9.8
2018-Jul-13 19:31N 45°06' W 002°54'510.0
2018-Jul-13 19:00N 45°00' W 002°55'510.4
2018-Jul-13 18:31N 44°55' W 002°56'510.4
2018-Jul-13 18:00N 44°50' W 002°56'510.2
2018-Jul-13 17:31N 44°45' W 002°57'5 9.9
2018-Jul-13 17:01N 44°40' W 002°57'510.4
2018-Jul-13 16:31N 44°35' W 002°58'510.5
2018-Jul-13 16:00N 44°30' W 002°59'610.6
2018-Jul-13 15:26N 44°24' W 002°59'1610.4
2018-Jul-13 13:53N 44°08' W 003°01'510.6
2018-Jul-13 13:24N 44°03' W 003°02'410.8
2018-Jul-13 13:00N 43°58' W 003°02'910.8
2018-Jul-13 12:12N 43°50' W 003°03'211.1
2018-Jul-13 11:59N 43°47' W 003°03'510.9
2018-Jul-13 11:30N 43°42' W 003°04'510.8
2018-Jul-13 11:00N 43°37' W 003°05'510.8
2018-Jul-13 10:30N 43°31' W 003°05'510.6
2018-Jul-13 10:00N 43°26' W 003°06'4 8.6
2018-Jul-13 09:30N 43°22' W 003°05'0 0.0
2018-Jul-12 20:18N 43°22' W 003°05'1 2.3
2018-Jul-12 20:00N 43°22' W 003°05'2 4.6
2018-Jul-12 19:28N 43°22' W 003°08'0 0.0
2018-Jul-12 18:58N 43°22' W 003°08'0 0.0
2018-Jul-12 18:28N 43°22' W 003°08'0 0.0
2018-Jul-12 17:58N 43°22' W 003°08'0 0.0
2018-Jul-12 17:28N 43°22' W 003°08'0 0.0
2018-Jul-12 16:58N 43°22' W 003°08'0 0.1
2018-Jul-12 16:28N 43°22' W 003°08'0 0.0
2018-Jul-12 15:58N 43°22' W 003°08'0 0.0
2018-Jul-12 15:28N 43°22' W 003°08'0 0.0
2018-Jul-12 14:58N 43°22' W 003°08'0 0.0
2018-Jul-12 14:28N 43°22' W 003°08'0 0.0
2018-Jul-12 13:58N 43°22' W 003°08'0 0.0
2018-Jul-12 13:28N 43°22' W 003°08'0 0.0
2018-Jul-12 12:58N 43°22' W 003°08'0 0.0
2018-Jul-12 12:28N 43°22' W 003°08'0 0.0
2018-Jul-12 11:58N 43°22' W 003°08'0 0.0
2018-Jul-12 11:28N 43°22' W 003°08'0 0.0
2018-Jul-12 10:58N 43°22' W 003°08'0 0.0
2018-Jul-12 10:28N 43°22' W 003°08'0 0.0
2018-Jul-12 09:58N 43°22' W 003°08'0 0.0
2018-Jul-12 09:28N 43°22' W 003°08'0 0.0
2018-Jul-12 08:58N 43°22' W 003°08'0 0.0
2018-Jul-12 08:28N 43°22' W 003°08'0 0.0
2018-Jul-12 07:58N 43°22' W 003°08'0 0.0
2018-Jul-12 07:28N 43°22' W 003°08'0 0.0
2018-Jul-12 06:58N 43°22' W 003°08'0 0.0
2018-Jul-12 06:28N 43°22' W 003°08'0 0.0
2018-Jul-12 05:58N 43°22' W 003°08'0 0.0
2018-Jul-12 05:28N 43°22' W 003°08'0 0.1
2018-Jul-12 04:58N 43°22' W 003°08'0 0.0
2018-Jul-12 04:28N 43°22' W 003°08'0 0.0
2018-Jul-12 03:58N 43°22' W 003°08'0 0.1
2018-Jul-12 03:28N 43°22' W 003°08'0 0.1
2018-Jul-12 02:58N 43°22' W 003°08'0 0.1
2018-Jul-12 02:25N 43°22' W 003°08'0 0.0
2018-Jul-12 01:58N 43°22' W 003°08'0 0.0
2018-Jul-12 01:28N 43°22' W 003°08'0 0.0
2018-Jul-12 00:58N 43°22' W 003°08'0 0.0
2018-Jul-12 00:28N 43°22' W 003°08'0 0.0
2018-Jul-11 23:58N 43°22' W 003°08'0 0.1
2018-Jul-11 23:28N 43°22' W 003°08'0 0.0
2018-Jul-11 22:58N 43°22' W 003°08'0 0.0
2018-Jul-11 22:28N 43°22' W 003°08'0 0.0
2018-Jul-11 21:55N 43°22' W 003°08'0 0.0
2018-Jul-11 21:28N 43°22' W 003°08'0 0.0
2018-Jul-11 20:58N 43°22' W 003°08'0 0.0
2018-Jul-11 20:28N 43°22' W 003°08'0 0.0
2018-Jul-11 19:58N 43°22' W 003°08'0 0.0
2018-Jul-11 19:25N 43°22' W 003°08'0 0.0
2018-Jul-11 18:55N 43°22' W 003°08'0 0.0
2018-Jul-11 18:28N 43°22' W 003°08'0 0.0
2018-Jul-11 17:55N 43°22' W 003°08'0 0.0
2018-Jul-11 17:22N 43°22' W 003°08'0 0.1
2018-Jul-11 16:58N 43°22' W 003°08'0 0.0
2018-Jul-11 16:28N 43°22' W 003°08'0 0.0
2018-Jul-11 15:58N 43°22' W 003°08'0 0.0
2018-Jul-11 15:28N 43°22' W 003°08'0 0.0
2018-Jul-11 14:58N 43°22' W 003°08'0 0.0
2018-Jul-11 14:28N 43°22' W 003°08'0 0.0
2018-Jul-11 13:58N 43°22' W 003°08'0 0.0
2018-Jul-11 13:28N 43°22' W 003°08'0 0.0
2018-Jul-11 12:58N 43°22' W 003°08'0 0.0
2018-Jul-11 12:28N 43°22' W 003°08'0 0.0
2018-Jul-11 11:58N 43°22' W 003°08'0 0.0
2018-Jul-11 11:28N 43°22' W 003°08'0 0.0
2018-Jul-11 10:58N 43°22' W 003°08'0 0.1
2018-Jul-11 10:19N 43°22' W 003°08'0 0.0
2018-Jul-11 09:58N 43°22' W 003°08'0 0.0
2018-Jul-11 09:28N 43°22' W 003°08'0 0.0
2018-Jul-11 08:58N 43°22' W 003°08'0 0.0
2018-Jul-11 08:28N 43°22' W 003°08'0 0.0
2018-Jul-11 07:58N 43°22' W 003°08'0 0.2
2018-Jul-11 07:28N 43°23' W 003°08'0 0.0
2018-Jul-11 06:58N 43°23' W 003°08'0 0.1
2018-Jul-11 06:28N 43°23' W 003°08'0 0.0
2018-Jul-11 05:58N 43°23' W 003°08'0 0.0
2018-Jul-11 05:28N 43°23' W 003°08'0 0.0
2018-Jul-11 04:58N 43°23' W 003°08'0 0.0
2018-Jul-11 04:28N 43°23' W 003°08'0 0.0
2018-Jul-11 03:58N 43°23' W 003°08'0 0.0
2018-Jul-11 03:22N 43°22' W 003°08'0 0.0
2018-Jul-11 02:58N 43°22' W 003°08'0 0.0
2018-Jul-11 02:28N 43°22' W 003°08'0 0.0
2018-Jul-11 01:58N 43°22' W 003°08'0 0.0
2018-Jul-11 01:25N 43°22' W 003°08'0 0.0
2018-Jul-11 00:58N 43°22' W 003°08'0 0.0
2018-Jul-11 00:28N 43°22' W 003°08'0 0.0
2018-Jul-10 23:58N 43°22' W 003°08'0 0.0
2018-Jul-10 23:28N 43°22' W 003°08'0 0.1
2018-Jul-10 22:28N 43°22' W 003°08'0 0.0
2018-Jul-10 21:55N 43°22' W 003°08'0 0.0
2018-Jul-10 21:28N 43°22' W 003°08'0 0.0
2018-Jul-10 20:58N 43°22' W 003°08'0 0.0
2018-Jul-10 20:28N 43°22' W 003°08'0 0.0
2018-Jul-10 19:58N 43°22' W 003°08'0 0.0
2018-Jul-10 19:28N 43°22' W 003°08'0 0.0
2018-Jul-10 18:52N 43°22' W 003°08'0 0.0
2018-Jul-10 18:28N 43°22' W 003°08'0 0.0
2018-Jul-10 17:58N 43°22' W 003°08'0 0.0
2018-Jul-10 17:28N 43°22' W 003°08'0 0.0
2018-Jul-10 16:58N 43°22' W 003°08'0 0.0
2018-Jul-10 16:28N 43°22' W 003°08'0 0.0
2018-Jul-10 15:58N 43°22' W 003°08'0 0.0
2018-Jul-10 15:25N 43°22' W 003°08'0 0.0
2018-Jul-10 14:58N 43°22' W 003°08'0 0.0
2018-Jul-10 14:28N 43°22' W 003°08'0 0.0
2018-Jul-10 13:58N 43°22' W 003°08'0 0.0
2018-Jul-10 13:28N 43°22' W 003°08'0 0.0
2018-Jul-10 12:58N 43°22' W 003°08'0 0.0
2018-Jul-10 12:28N 43°22' W 003°08'0 0.0
2018-Jul-10 11:58N 43°22' W 003°08'0 0.0
2018-Jul-10 11:28N 43°22' W 003°08'0 0.0
2018-Jul-10 10:58N 43°22' W 003°08'0 0.0
2018-Jul-10 10:28N 43°22' W 003°08'0 0.0
2018-Jul-10 09:58N 43°22' W 003°08'0 0.0
2018-Jul-10 09:28N 43°22' W 003°08'0 0.0
2018-Jul-10 08:58N 43°22' W 003°08'0 0.0
2018-Jul-10 08:28N 43°22' W 003°08'0 0.0
2018-Jul-10 07:58N 43°22' W 003°08'0 0.1
2018-Jul-10 07:28N 43°22' W 003°08'0 0.1
2018-Jul-10 06:58N 43°22' W 003°08'0 0.0
2018-Jul-10 06:28N 43°23' W 003°08'0 0.0
2018-Jul-10 05:58N 43°23' W 003°08'0 0.0
2018-Jul-10 05:28N 43°23' W 003°08'0 0.0
2018-Jul-10 04:58N 43°23' W 003°08'0 0.1
2018-Jul-10 04:28N 43°22' W 003°08'0 0.0
2018-Jul-10 03:58N 43°22' W 003°08'0 0.0
2018-Jul-10 03:28N 43°22' W 003°08'0 0.0
2018-Jul-10 02:58N 43°22' W 003°08'0 0.0
2018-Jul-10 02:28N 43°22' W 003°08'0 0.0
2018-Jul-10 01:58N 43°22' W 003°08'0 0.0
2018-Jul-10 01:28N 43°22' W 003°08'0 0.0
2018-Jul-10 00:58N 43°22' W 003°08'0 0.0
2018-Jul-10 00:28N 43°22' W 003°08'0 0.0
2018-Jul-09 23:58N 43°22' W 003°08'0 0.0
2018-Jul-09 23:28N 43°22' W 003°08'0 0.0
2018-Jul-09 22:58N 43°22' W 003°08'0 0.0
2018-Jul-09 22:28N 43°22' W 003°08'0 0.0
2018-Jul-09 21:58N 43°22' W 003°08'0 0.0
2018-Jul-09 21:28N 43°22' W 003°08'0 0.0
2018-Jul-09 20:58N 43°22' W 003°08'0 0.0
2018-Jul-09 20:28N 43°22' W 003°08'0 0.0
2018-Jul-09 19:58N 43°22' W 003°08'0 0.0
2018-Jul-09 19:28N 43°22' W 003°08'0 0.0
2018-Jul-09 18:58N 43°22' W 003°08'0 0.0
2018-Jul-09 18:28N 43°22' W 003°08'0 0.0
2018-Jul-09 17:58N 43°22' W 003°08'0 0.0
2018-Jul-09 17:28N 43°22' W 003°08'0 0.0
2018-Jul-09 16:58N 43°22' W 003°08'0 0.0
2018-Jul-09 16:28N 43°22' W 003°08'0 0.0
2018-Jul-09 15:58N 43°22' W 003°08'0 0.0
2018-Jul-09 15:28N 43°22' W 003°08'0 0.0
2018-Jul-09 14:58N 43°22' W 003°08'0 0.0
2018-Jul-09 14:28N 43°22' W 003°08'0 0.0
2018-Jul-09 13:58N 43°22' W 003°08'0 0.0
2018-Jul-09 13:28N 43°22' W 003°08'0 0.0
2018-Jul-09 12:58N 43°22' W 003°08'0 0.0
2018-Jul-09 12:28N 43°22' W 003°08'0 0.0
2018-Jul-09 11:58N 43°22' W 003°08'0 0.0
2018-Jul-09 11:28N 43°22' W 003°08'0 0.0
2018-Jul-09 10:58N 43°22' W 003°08'0 0.0
2018-Jul-09 10:28N 43°22' W 003°08'0 0.0
2018-Jul-09 09:58N 43°22' W 003°08'0 0.2
2018-Jul-09 09:31N 43°22' W 003°08'3 6.7
2018-Jul-09 09:00N 43°26' W 003°08'611.7
2018-Jul-09 08:30N 43°31' W 003°10'611.9
2018-Jul-09 08:00N 43°37' W 003°13'611.8
2018-Jul-09 07:30N 43°43' W 003°16'611.8
2018-Jul-09 07:00N 43°48' W 003°19'612.0
2018-Jul-09 06:28N 43°54' W 003°22'612.0
2018-Jul-09 06:00N 43°59' W 003°24'611.8
2018-Jul-09 05:30N 44°05' W 003°27'611.9
2018-Jul-09 05:00N 44°10' W 003°30'611.9
2018-Jul-09 04:30N 44°16' W 003°34'611.9
2018-Jul-09 04:00N 44°21' W 003°37'611.8
2018-Jul-09 03:30N 44°27' W 003°39'611.7
2018-Jul-09 03:00N 44°33' W 003°42'611.5
2018-Jul-09 02:30N 44°38' W 003°45'611.6
2018-Jul-09 02:00N 44°43' W 003°48'611.5
2018-Jul-09 01:30N 44°49' W 003°51'611.3
2018-Jul-09 01:00N 44°54' W 003°54'611.7
2018-Jul-09 00:29N 44°60' W 003°57'611.6
2018-Jul-09 00:00N 45°05' W 003°59'611.7
2018-Jul-08 23:29N 45°11' W 004°03'611.6
2018-Jul-08 23:00N 45°16' W 004°06'611.6
2018-Jul-08 22:28N 45°21' W 004°09'16311.7
2018-Jul-08 08:36N 47°53' W 005°33'111.1
2018-Jul-08 08:30N 47°55' W 005°33'510.7
2018-Jul-08 08:00N 47°59' W 005°36'511.0
2018-Jul-08 07:30N 48°05' W 005°39'611.2
2018-Jul-08 07:00N 48°10' W 005°42'611.3
2018-Jul-08 06:30N 48°15' W 005°45'611.8
2018-Jul-08 06:00N 48°21' W 005°48'611.7
2018-Jul-08 05:30N 48°26' W 005°51'612.0
2018-Jul-08 05:00N 48°32' W 005°55'612.0
2018-Jul-08 04:30N 48°37' W 005°58'712.1
2018-Jul-08 03:58N 48°43' W 005°54'612.7
2018-Jul-08 03:30N 48°48' W 005°49'612.5
2018-Jul-08 03:00N 48°53' W 005°43'612.4
2018-Jul-08 02:30N 48°56' W 005°35'612.1
2018-Jul-08 02:00N 48°59' W 005°27'611.8
2018-Jul-08 01:30N 49°03' W 005°20'611.6
2018-Jul-08 01:00N 49°06' W 005°12'611.3
2018-Jul-08 00:30N 49°09' W 005°05'611.2
2018-Jul-07 23:57N 49°12' W 004°57'611.0
2018-Jul-07 23:25N 49°15' W 004°49'510.9
2018-Jul-07 23:00N 49°17' W 004°43'510.9
2018-Jul-07 22:30N 49°20' W 004°36'611.0
2018-Jul-07 21:57N 49°23' W 004°28'511.3
2018-Jul-07 21:30N 49°26' W 004°22'2912.0
2018-Jul-07 19:05N 49°40' W 003°43'312.6
2018-Jul-07 18:52N 49°41' W 003°39'512.5
2018-Jul-07 18:30N 49°44' W 003°33'612.3
2018-Jul-07 18:00N 49°47' W 003°25'612.2
2018-Jul-07 17:30N 49°50' W 003°17'611.7
2018-Jul-07 17:00N 49°53' W 003°09'611.3
2018-Jul-07 16:30N 49°56' W 003°01'611.3
2018-Jul-07 15:59N 49°59' W 002°53'1910.4
2018-Jul-07 14:07N 50°04' W 002°24'14 9.8
2018-Jul-07 12:43N 50°07' W 002°03'210.1
2018-Jul-07 12:30N 50°08' W 002°00'510.5
2018-Jul-07 12:00N 50°09' W 001°52'510.9
2018-Jul-07 11:30N 50°11' W 001°44'611.4
2018-Jul-07 11:00N 50°12' W 001°36'612.0
2018-Jul-07 10:30N 50°14' W 001°27'612.7
2018-Jul-07 10:00N 50°15' W 001°17'713.2
2018-Jul-07 09:30N 50°17' W 001°07'714.2
2018-Jul-07 09:01N 50°19' W 000°56'713.8
2018-Jul-07 08:30N 50°21' W 000°46'713.3
2018-Jul-07 08:01N 50°22' W 000°36'713.3
2018-Jul-07 07:30N 50°24' W 000°26'612.8
2018-Jul-07 07:00N 50°26' W 000°16'612.4
2018-Jul-07 06:31N 50°27' W 000°07'611.9
2018-Jul-07 06:00N 50°29' E 000°02'611.6
2018-Jul-07 05:30N 50°30' E 000°11'611.2
2018-Jul-07 05:01N 50°32' E 000°20'510.8
2018-Jul-07 04:30N 50°33' E 000°28'510.7
2018-Jul-07 04:00N 50°35' E 000°36'510.6
2018-Jul-07 03:31N 50°38' E 000°43'510.8
2018-Jul-07 03:01N 50°41' E 000°50'510.8
2018-Jul-07 02:31N 50°44' E 000°57'611.2
2018-Jul-07 02:00N 50°47' E 001°04'611.8
2018-Jul-07 01:30N 50°51' E 001°12'612.5
2018-Jul-07 01:00N 50°55' E 001°19'713.5
2018-Jul-07 00:31N 50°60' E 001°26'713.5
2018-Jul-07 00:01N 51°05' E 001°34'713.3
2018-Jul-06 23:31N 51°09' E 001°41'612.6
2018-Jul-06 23:00N 51°14' E 001°48'612.0
2018-Jul-06 22:31N 51°19' E 001°53'611.6
2018-Jul-06 22:01N 51°24' E 001°57'511.0
2018-Jul-06 21:31N 51°29' E 002°02'510.9
2018-Jul-06 21:00N 51°33' E 002°08'510.7
2018-Jul-06 20:31N 51°37' E 002°14'510.6
2018-Jul-06 20:01N 51°40' E 002°20'510.4
2018-Jul-06 19:29N 51°45' E 002°26'510.3
2018-Jul-06 19:00N 51°48' E 002°31'510.5
2018-Jul-06 18:29N 51°52' E 002°37'510.6
2018-Jul-06 18:01N 51°56' E 002°43'611.0
2018-Jul-06 17:31N 52°00' E 002°48'510.1
2018-Jul-06 17:01N 52°00' E 002°57'611.0
2018-Jul-06 16:31N 51°56' E 003°03'611.2
2018-Jul-06 16:00N 51°52' E 003°08'611.0
2018-Jul-06 15:31N 51°47' E 003°13'5 9.4
2018-Jul-06 14:59N 51°46' E 003°21'0 0.0
2018-Jul-06 14:26N 51°46' E 003°21'0 0.0
2018-Jul-06 13:59N 51°46' E 003°21'0 0.0
2018-Jul-06 13:29N 51°46' E 003°21'0 0.0
2018-Jul-06 12:59N 51°46' E 003°21'0 0.0
2018-Jul-06 12:29N 51°46' E 003°21'0 0.0
2018-Jul-06 11:56N 51°46' E 003°21'0 0.0
2018-Jul-06 11:31N 51°46' E 003°21'0 0.0
2018-Jul-06 11:00N 51°46' E 003°21'0 0.1
2018-Jul-06 10:30N 51°46' E 003°21'0 0.1
2018-Jul-06 10:00N 51°46' E 003°21'0 0.0
2018-Jul-06 09:29N 51°46' E 003°21'0 0.0
2018-Jul-06 09:00N 51°46' E 003°21'0 0.0
2018-Jul-06 08:29N 51°46' E 003°21'0 0.0
2018-Jul-06 08:00N 51°46' E 003°21'  
Track history (hours):
 
Tides and Currents Weather Stations Pressure Air Temp Water Temp Dewpoint Dewpoint Depression Visibility Wind Speed Wind Dir Waves Ship Positions

Atlantis Alvarado

Last reported at 2018-Jul-16 07:40 UTC. Time now 2018-Jul-17 05:41 UTC.
Position N 47°18' W 002°07'.

Length 92 m; draft 6.2 m.

Type: Tanker. MMSI: 248145000.

Date/timePositionNaut miles runAvg speedWind from/ knotsBaromVisibWave heightAir tempDewpointWater temp
2018-Jul-16 07:40N 47°18' W 002°07'0 0.0
2018-Jul-16 07:28N 47°18' W 002°07'0 0.0
2018-Jul-16 06:40N 47°18' W 002°07'0 0.0
2018-Jul-16 05:52N 47°18' W 002°07'0 1.1
2018-Jul-16 05:30N 47°18' W 002°07'4 8.1
2018-Jul-16 05:00N 47°16' W 002°12'510.4
2018-Jul-16 04:31N 47°12' W 002°17'5 9.8
2018-Jul-16 04:00N 47°08' W 002°22'3 6.3
2018-Jul-16 03:29N 47°09' W 002°26'0 0.1
2018-Jul-16 02:59N 47°09' W 002°27'0 0.0
2018-Jul-16 02:29N 47°09' W 002°27'0 0.0
2018-Jul-16 01:59N 47°09' W 002°27'0 0.0
2018-Jul-16 01:26N 47°09' W 002°27'0 0.1
2018-Jul-16 00:59N 47°09' W 002°27'0 0.1
2018-Jul-16 00:29N 47°09' W 002°27'0 0.0
2018-Jul-15 23:59N 47°09' W 002°27'0 0.0
2018-Jul-15 23:29N 47°09' W 002°27'0 0.0
2018-Jul-15 22:59N 47°09' W 002°27'0 0.0
2018-Jul-15 22:29N 47°09' W 002°27'0 0.0
2018-Jul-15 21:59N 47°09' W 002°27'0 0.0
2018-Jul-15 21:29N 47°09' W 002°27'0 0.0
2018-Jul-15 20:59N 47°09' W 002°27'0 0.0
2018-Jul-15 20:29N 47°09' W 002°27'0 0.1
2018-Jul-15 19:59N 47°09' W 002°27'0 0.1
2018-Jul-15 19:29N 47°09' W 002°27'0 0.0
2018-Jul-15 18:59N 47°09' W 002°27'0 0.0
2018-Jul-15 18:29N 47°09' W 002°27'0 0.0
2018-Jul-15 17:59N 47°09' W 002°27'0 0.0
2018-Jul-15 17:29N 47°09' W 002°27'0 0.1
2018-Jul-15 16:59N 47°09' W 002°26'0 0.1
2018-Jul-15 16:29N 47°09' W 002°26'0 0.0
2018-Jul-15 15:56N 47°09' W 002°26'0 0.1
2018-Jul-15 15:29N 47°09' W 002°27'0 0.0
2018-Jul-15 14:59N 47°09' W 002°27'0 0.0
2018-Jul-15 14:20N 47°09' W 002°27'0 0.0
2018-Jul-15 13:59N 47°09' W 002°27'0 0.0
2018-Jul-15 13:29N 47°09' W 002°27'0 0.1
2018-Jul-15 12:59N 47°09' W 002°27'0 0.1
2018-Jul-15 12:17N 47°09' W 002°27'0 0.0
2018-Jul-15 11:59N 47°09' W 002°27'0 0.0
2018-Jul-15 11:29N 47°09' W 002°27'0 0.0
2018-Jul-15 10:59N 47°09' W 002°27'0 0.0
2018-Jul-15 10:29N 47°09' W 002°27'0 0.0
2018-Jul-15 09:56N 47°09' W 002°27'0 0.0
2018-Jul-15 09:29N 47°09' W 002°27'0 0.0
2018-Jul-15 08:59N 47°09' W 002°27'0 0.0
2018-Jul-15 08:29N 47°09' W 002°27'0 0.0
2018-Jul-15 07:59N 47°09' W 002°27'0 0.0
2018-Jul-15 07:29N 47°09' W 002°27'0 0.0
2018-Jul-15 06:59N 47°09' W 002°27'0 0.0
2018-Jul-15 06:29N 47°09' W 002°27'0 0.0
2018-Jul-15 05:59N 47°09' W 002°27'0 0.0
2018-Jul-15 05:29N 47°09' W 002°27'0 0.0
2018-Jul-15 04:59N 47°09' W 002°27'0 0.0
2018-Jul-15 04:29N 47°09' W 002°27'0 0.0
2018-Jul-15 03:59N 47°09' W 002°27'0 0.0
2018-Jul-15 03:29N 47°09' W 002°27'0 0.0
2018-Jul-15 02:59N 47°09' W 002°27'0 0.1
2018-Jul-15 02:29N 47°09' W 002°27'0 0.0
2018-Jul-15 01:59N 47°09' W 002°27'0 0.2
2018-Jul-15 01:26N 47°09' W 002°27'0 0.0
2018-Jul-15 00:53N 47°09' W 002°27'0 0.0
2018-Jul-15 00:29N 47°09' W 002°27'0 0.0
2018-Jul-14 23:59N 47°09' W 002°27'0 0.0
2018-Jul-14 23:26N 47°09' W 002°27'0 0.0
2018-Jul-14 22:59N 47°09' W 002°27'0 0.0
2018-Jul-14 22:29N 47°09' W 002°27'0 0.0
2018-Jul-14 21:59N 47°09' W 002°27'0 0.0
2018-Jul-14 21:29N 47°09' W 002°27'0 0.0
2018-Jul-14 20:59N 47°09' W 002°27'0 0.0
2018-Jul-14 20:29N 47°09' W 002°27'0 0.0
2018-Jul-14 19:59N 47°09' W 002°27'0 0.0
2018-Jul-14 19:29N 47°09' W 002°27'0 0.0
2018-Jul-14 18:59N 47°09' W 002°27'0 0.1
2018-Jul-14 18:29N 47°09' W 002°27'0 0.0
2018-Jul-14 17:59N 47°09' W 002°27'0 0.0
2018-Jul-14 17:29N 47°09' W 002°27'0 0.0
2018-Jul-14 16:59N 47°09' W 002°27'0 0.0
2018-Jul-14 16:26N 47°09' W 002°27'0 0.0
2018-Jul-14 14:41N 47°09' W 002°27'0 0.0
2018-Jul-14 13:56N 47°09' W 002°27'0 0.0
2018-Jul-14 13:29N 47°09' W 002°27'0 0.0
2018-Jul-14 12:59N 47°09' W 002°27'0 0.1
2018-Jul-14 12:26N 47°09' W 002°27'0 0.1
2018-Jul-14 11:59N 47°09' W 002°27'0 0.1
2018-Jul-14 11:29N 47°09' W 002°27'0 0.1
2018-Jul-14 10:56N 47°09' W 002°27'0 0.0
2018-Jul-14 10:29N 47°09' W 002°27'0 0.0
2018-Jul-14 09:59N 47°09' W 002°27'0 0.0
2018-Jul-14 09:20N 47°09' W 002°27'0 0.0
2018-Jul-14 08:59N 47°09' W 002°27'0 0.0
2018-Jul-14 08:29N 47°09' W 002°27'0 0.4
2018-Jul-14 08:00N 47°09' W 002°27'4 8.1
2018-Jul-14 07:30N 47°05' W 002°27'4 9.0
2018-Jul-14 07:00N 47°02' W 002°32'5 9.5
2018-Jul-14 06:30N 46°59' W 002°37'5 9.7
2018-Jul-14 06:00N 46°55' W 002°41'5 9.8
2018-Jul-14 05:30N 46°50' W 002°42'510.1
2018-Jul-14 05:00N 46°45' W 002°42'510.2
2018-Jul-14 04:30N 46°40' W 002°43'5 9.8
2018-Jul-14 04:00N 46°35' W 002°44'5 9.7
2018-Jul-14 03:30N 46°30' W 002°44'510.1
2018-Jul-14 03:00N 46°25' W 002°45'610.2
2018-Jul-14 02:27N 46°19' W 002°46'510.5
2018-Jul-14 02:00N 46°15' W 002°46'610.7
2018-Jul-14 01:29N 46°09' W 002°47'610.8
2018-Jul-14 00:58N 46°04' W 002°47'1911.1
2018-Jul-13 23:16N 45°45' W 002°50'711.0
2018-Jul-13 22:38N 45°38' W 002°50'210.9
2018-Jul-13 22:29N 45°36' W 002°50'510.5
2018-Jul-13 22:00N 45°31' W 002°51'510.5
2018-Jul-13 21:31N 45°26' W 002°52'510.7
2018-Jul-13 21:00N 45°21' W 002°53'510.3
2018-Jul-13 20:31N 45°16' W 002°54'510.3
2018-Jul-13 20:00N 45°10' W 002°54'5 9.8
2018-Jul-13 19:31N 45°06' W 002°54'510.0
2018-Jul-13 19:00N 45°00' W 002°55'510.4
2018-Jul-13 18:31N 44°55' W 002°56'510.4
2018-Jul-13 18:00N 44°50' W 002°56'510.2
2018-Jul-13 17:31N 44°45' W 002°57'5 9.9
2018-Jul-13 17:01N 44°40' W 002°57'510.4
2018-Jul-13 16:31N 44°35' W 002°58'510.5
2018-Jul-13 16:00N 44°30' W 002°59'610.6
2018-Jul-13 15:26N 44°24' W 002°59'1610.4
2018-Jul-13 13:53N 44°08' W 003°01'510.6
2018-Jul-13 13:24N 44°03' W 003°02'410.8
2018-Jul-13 13:00N 43°58' W 003°02'910.8
2018-Jul-13 12:12N 43°50' W 003°03'211.1
2018-Jul-13 11:59N 43°47' W 003°03'510.9
2018-Jul-13 11:30N 43°42' W 003°04'510.8
2018-Jul-13 11:00N 43°37' W 003°05'510.8
2018-Jul-13 10:30N 43°31' W 003°05'510.6
2018-Jul-13 10:00N 43°26' W 003°06'4 8.6
2018-Jul-13 09:30N 43°22' W 003°05'0 0.0
2018-Jul-12 20:18N 43°22' W 003°05'1 2.3
2018-Jul-12 20:00N 43°22' W 003°05'2 4.6
2018-Jul-12 19:28N 43°22' W 003°08'0 0.0
2018-Jul-12 18:58N 43°22' W 003°08'0 0.0
2018-Jul-12 18:28N 43°22' W 003°08'0 0.0
2018-Jul-12 17:58N 43°22' W 003°08'0 0.0
2018-Jul-12 17:28N 43°22' W 003°08'0 0.0
2018-Jul-12 16:58N 43°22' W 003°08'0 0.1
2018-Jul-12 16:28N 43°22' W 003°08'0 0.0
2018-Jul-12 15:58N 43°22' W 003°08'0 0.0
2018-Jul-12 15:28N 43°22' W 003°08'0 0.0
2018-Jul-12 14:58N 43°22' W 003°08'0 0.0
2018-Jul-12 14:28N 43°22' W 003°08'0 0.0
2018-Jul-12 13:58N 43°22' W 003°08'0 0.0
2018-Jul-12 13:28N 43°22' W 003°08'0 0.0
2018-Jul-12 12:58N 43°22' W 003°08'0 0.0
2018-Jul-12 12:28N 43°22' W 003°08'0 0.0
2018-Jul-12 11:58N 43°22' W 003°08'0 0.0
2018-Jul-12 11:28N 43°22' W 003°08'0 0.0
2018-Jul-12 10:58N 43°22' W 003°08'0 0.0
2018-Jul-12 10:28N 43°22' W 003°08'0 0.0
2018-Jul-12 09:58N 43°22' W 003°08'0 0.0
2018-Jul-12 09:28N 43°22' W 003°08'0 0.0
2018-Jul-12 08:58N 43°22' W 003°08'0 0.0
2018-Jul-12 08:28N 43°22' W 003°08'0 0.0
2018-Jul-12 07:58N 43°22' W 003°08'0 0.0
2018-Jul-12 07:28N 43°22' W 003°08'0 0.0
2018-Jul-12 06:58N 43°22' W 003°08'0 0.0
2018-Jul-12 06:28N 43°22' W 003°08'0 0.0
2018-Jul-12 05:58N 43°22' W 003°08'0 0.0
2018-Jul-12 05:28N 43°22' W 003°08'0 0.1
2018-Jul-12 04:58N 43°22' W 003°08'0 0.0
2018-Jul-12 04:28N 43°22' W 003°08'0 0.0
2018-Jul-12 03:58N 43°22' W 003°08'0 0.1
2018-Jul-12 03:28N 43°22' W 003°08'0 0.1
2018-Jul-12 02:58N 43°22' W 003°08'0 0.1
2018-Jul-12 02:25N 43°22' W 003°08'0 0.0
2018-Jul-12 01:58N 43°22' W 003°08'0 0.0
2018-Jul-12 01:28N 43°22' W 003°08'0 0.0
2018-Jul-12 00:58N 43°22' W 003°08'0 0.0
2018-Jul-12 00:28N 43°22' W 003°08'0 0.0
2018-Jul-11 23:58N 43°22' W 003°08'0 0.1
2018-Jul-11 23:28N 43°22' W 003°08'0 0.0
2018-Jul-11 22:58N 43°22' W 003°08'0 0.0
2018-Jul-11 22:28N 43°22' W 003°08'0 0.0
2018-Jul-11 21:55N 43°22' W 003°08'0 0.0
2018-Jul-11 21:28N 43°22' W 003°08'0 0.0
2018-Jul-11 20:58N 43°22' W 003°08'0 0.0
2018-Jul-11 20:28N 43°22' W 003°08'0 0.0
2018-Jul-11 19:58N 43°22' W 003°08'0 0.0
2018-Jul-11 19:25N 43°22' W 003°08'0 0.0
2018-Jul-11 18:55N 43°22' W 003°08'0 0.0
2018-Jul-11 18:28N 43°22' W 003°08'0 0.0
2018-Jul-11 17:55N 43°22' W 003°08'0 0.0
2018-Jul-11 17:22N 43°22' W 003°08'0 0.1
2018-Jul-11 16:58N 43°22' W 003°08'0 0.0
2018-Jul-11 16:28N 43°22' W 003°08'0 0.0
2018-Jul-11 15:58N 43°22' W 003°08'0 0.0
2018-Jul-11 15:28N 43°22' W 003°08'0 0.0
2018-Jul-11 14:58N 43°22' W 003°08'0 0.0
2018-Jul-11 14:28N 43°22' W 003°08'0 0.0
2018-Jul-11 13:58N 43°22' W 003°08'0 0.0
2018-Jul-11 13:28N 43°22' W 003°08'0 0.0
2018-Jul-11 12:58N 43°22' W 003°08'0 0.0
2018-Jul-11 12:28N 43°22' W 003°08'0 0.0
2018-Jul-11 11:58N 43°22' W 003°08'0 0.0
2018-Jul-11 11:28N 43°22' W 003°08'0 0.0
2018-Jul-11 10:58N 43°22' W 003°08'0 0.1
2018-Jul-11 10:19N 43°22' W 003°08'0 0.0
2018-Jul-11 09:58N 43°22' W 003°08'0 0.0
2018-Jul-11 09:28N 43°22' W 003°08'0 0.0
2018-Jul-11 08:58N 43°22' W 003°08'0 0.0
2018-Jul-11 08:28N 43°22' W 003°08'0 0.0
2018-Jul-11 07:58N 43°22' W 003°08'0 0.2
2018-Jul-11 07:28N 43°23' W 003°08'0 0.0
2018-Jul-11 06:58N 43°23' W 003°08'0 0.1
2018-Jul-11 06:28N 43°23' W 003°08'0 0.0
2018-Jul-11 05:58N 43°23' W 003°08'0 0.0
2018-Jul-11 05:28N 43°23' W 003°08'0 0.0
2018-Jul-11 04:58N 43°23' W 003°08'0 0.0
2018-Jul-11 04:28N 43°23' W 003°08'0 0.0
2018-Jul-11 03:58N 43°23' W 003°08'0 0.0
2018-Jul-11 03:22N 43°22' W 003°08'0 0.0
2018-Jul-11 02:58N 43°22' W 003°08'0 0.0
2018-Jul-11 02:28N 43°22' W 003°08'0 0.0
2018-Jul-11 01:58N 43°22' W 003°08'0 0.0
2018-Jul-11 01:25N 43°22' W 003°08'0 0.0
2018-Jul-11 00:58N 43°22' W 003°08'0 0.0
2018-Jul-11 00:28N 43°22' W 003°08'0 0.0
2018-Jul-10 23:58N 43°22' W 003°08'0 0.0
2018-Jul-10 23:28N 43°22' W 003°08'0 0.1
2018-Jul-10 22:28N 43°22' W 003°08'0 0.0
2018-Jul-10 21:55N 43°22' W 003°08'0 0.0
2018-Jul-10 21:28N 43°22' W 003°08'0 0.0
2018-Jul-10 20:58N 43°22' W 003°08'0 0.0
2018-Jul-10 20:28N 43°22' W 003°08'0 0.0
2018-Jul-10 19:58N 43°22' W 003°08'0 0.0
2018-Jul-10 19:28N 43°22' W 003°08'0 0.0
2018-Jul-10 18:52N 43°22' W 003°08'0 0.0
2018-Jul-10 18:28N 43°22' W 003°08'0 0.0
2018-Jul-10 17:58N 43°22' W 003°08'0 0.0
2018-Jul-10 17:28N 43°22' W 003°08'0 0.0
2018-Jul-10 16:58N 43°22' W 003°08'0 0.0
2018-Jul-10 16:28N 43°22' W 003°08'0 0.0
2018-Jul-10 15:58N 43°22' W 003°08'0 0.0
2018-Jul-10 15:25N 43°22' W 003°08'0 0.0
2018-Jul-10 14:58N 43°22' W 003°08'0 0.0
2018-Jul-10 14:28N 43°22' W 003°08'0 0.0
2018-Jul-10 13:58N 43°22' W 003°08'0 0.0
2018-Jul-10 13:28N 43°22' W 003°08'0 0.0
2018-Jul-10 12:58N 43°22' W 003°08'0 0.0
2018-Jul-10 12:28N 43°22' W 003°08'0 0.0
2018-Jul-10 11:58N 43°22' W 003°08'0 0.0
2018-Jul-10 11:28N 43°22' W 003°08'0 0.0
2018-Jul-10 10:58N 43°22' W 003°08'0 0.0
2018-Jul-10 10:28N 43°22' W 003°08'0 0.0
2018-Jul-10 09:58N 43°22' W 003°08'0 0.0
2018-Jul-10 09:28N 43°22' W 003°08'0 0.0
2018-Jul-10 08:58N 43°22' W 003°08'0 0.0
2018-Jul-10 08:28N 43°22' W 003°08'0 0.0
2018-Jul-10 07:58N 43°22' W 003°08'0 0.1
2018-Jul-10 07:28N 43°22' W 003°08'0 0.1
2018-Jul-10 06:58N 43°22' W 003°08'0 0.0
2018-Jul-10 06:28N 43°23' W 003°08'0 0.0
2018-Jul-10 05:58N 43°23' W 003°08'0 0.0
2018-Jul-10 05:28N 43°23' W 003°08'0 0.0
2018-Jul-10 04:58N 43°23' W 003°08'0 0.1
2018-Jul-10 04:28N 43°22' W 003°08'0 0.0
2018-Jul-10 03:58N 43°22' W 003°08'0 0.0
2018-Jul-10 03:28N 43°22' W 003°08'0 0.0
2018-Jul-10 02:58N 43°22' W 003°08'0 0.0
2018-Jul-10 02:28N 43°22' W 003°08'0 0.0
2018-Jul-10 01:58N 43°22' W 003°08'0 0.0
2018-Jul-10 01:28N 43°22' W 003°08'0 0.0
2018-Jul-10 00:58N 43°22' W 003°08'0 0.0
2018-Jul-10 00:28N 43°22' W 003°08'0 0.0
2018-Jul-09 23:58N 43°22' W 003°08'0 0.0
2018-Jul-09 23:28N 43°22' W 003°08'0 0.0
2018-Jul-09 22:58N 43°22' W 003°08'0 0.0
2018-Jul-09 22:28N 43°22' W 003°08'0 0.0
2018-Jul-09 21:58N 43°22' W 003°08'0 0.0
2018-Jul-09 21:28N 43°22' W 003°08'0 0.0
2018-Jul-09 20:58N 43°22' W 003°08'0 0.0
2018-Jul-09 20:28N 43°22' W 003°08'0 0.0
2018-Jul-09 19:58N 43°22' W 003°08'0 0.0
2018-Jul-09 19:28N 43°22' W 003°08'0 0.0
2018-Jul-09 18:58N 43°22' W 003°08'0 0.0
2018-Jul-09 18:28N 43°22' W 003°08'0 0.0
2018-Jul-09 17:58N 43°22' W 003°08'0 0.0
2018-Jul-09 17:28N 43°22' W 003°08'0 0.0
2018-Jul-09 16:58N 43°22' W 003°08'0 0.0
2018-Jul-09 16:28N 43°22' W 003°08'0 0.0
2018-Jul-09 15:58N 43°22' W 003°08'0 0.0
2018-Jul-09 15:28N 43°22' W 003°08'0 0.0
2018-Jul-09 14:58N 43°22' W 003°08'0 0.0
2018-Jul-09 14:28N 43°22' W 003°08'0 0.0
2018-Jul-09 13:58N 43°22' W 003°08'0 0.0
2018-Jul-09 13:28N 43°22' W 003°08'0 0.0
2018-Jul-09 12:58N 43°22' W 003°08'0 0.0
2018-Jul-09 12:28N 43°22' W 003°08'0 0.0
2018-Jul-09 11:58N 43°22' W 003°08'0 0.0
2018-Jul-09 11:28N 43°22' W 003°08'0 0.0
2018-Jul-09 10:58N 43°22' W 003°08'0 0.0
2018-Jul-09 10:28N 43°22' W 003°08'0 0.0
2018-Jul-09 09:58N 43°22' W 003°08'0 0.2
2018-Jul-09 09:31N 43°22' W 003°08'3 6.7
2018-Jul-09 09:00N 43°26' W 003°08'611.7
2018-Jul-09 08:30N 43°31' W 003°10'611.9
2018-Jul-09 08:00N 43°37' W 003°13'611.8
2018-Jul-09 07:30N 43°43' W 003°16'611.8
2018-Jul-09 07:00N 43°48' W 003°19'612.0
2018-Jul-09 06:28N 43°54' W 003°22'612.0
2018-Jul-09 06:00N 43°59' W 003°24'611.8
2018-Jul-09 05:30N 44°05' W 003°27'611.9
2018-Jul-09 05:00N 44°10' W 003°30'611.9
2018-Jul-09 04:30N 44°16' W 003°34'611.9
2018-Jul-09 04:00N 44°21' W 003°37'611.8
2018-Jul-09 03:30N 44°27' W 003°39'611.7
2018-Jul-09 03:00N 44°33' W 003°42'611.5
2018-Jul-09 02:30N 44°38' W 003°45'611.6
2018-Jul-09 02:00N 44°43' W 003°48'611.5
2018-Jul-09 01:30N 44°49' W 003°51'611.3
2018-Jul-09 01:00N 44°54' W 003°54'611.7
2018-Jul-09 00:29N 44°60' W 003°57'611.6
2018-Jul-09 00:00N 45°05' W 003°59'611.7
2018-Jul-08 23:29N 45°11' W 004°03'611.6
2018-Jul-08 23:00N 45°16' W 004°06'611.6
2018-Jul-08 22:28N 45°21' W 004°09'16311.7
2018-Jul-08 08:36N 47°53' W 005°33'111.1
2018-Jul-08 08:30N 47°55' W 005°33'510.7
2018-Jul-08 08:00N 47°59' W 005°36'511.0
2018-Jul-08 07:30N 48°05' W 005°39'611.2
2018-Jul-08 07:00N 48°10' W 005°42'611.3
2018-Jul-08 06:30N 48°15' W 005°45'611.8
2018-Jul-08 06:00N 48°21' W 005°48'611.7
2018-Jul-08 05:30N 48°26' W 005°51'612.0
2018-Jul-08 05:00N 48°32' W 005°55'612.0
2018-Jul-08 04:30N 48°37' W 005°58'712.1
2018-Jul-08 03:58N 48°43' W 005°54'612.7
2018-Jul-08 03:30N 48°48' W 005°49'612.5
2018-Jul-08 03:00N 48°53' W 005°43'612.4
2018-Jul-08 02:30N 48°56' W 005°35'612.1
2018-Jul-08 02:00N 48°59' W 005°27'611.8
2018-Jul-08 01:30N 49°03' W 005°20'611.6
2018-Jul-08 01:00N 49°06' W 005°12'611.3
2018-Jul-08 00:30N 49°09' W 005°05'611.2
2018-Jul-07 23:57N 49°12' W 004°57'611.0
2018-Jul-07 23:25N 49°15' W 004°49'510.9
2018-Jul-07 23:00N 49°17' W 004°43'510.9
2018-Jul-07 22:30N 49°20' W 004°36'611.0
2018-Jul-07 21:57N 49°23' W 004°28'511.3
2018-Jul-07 21:30N 49°26' W 004°22'2912.0
2018-Jul-07 19:05N 49°40' W 003°43'312.6
2018-Jul-07 18:52N 49°41' W 003°39'512.5
2018-Jul-07 18:30N 49°44' W 003°33'612.3
2018-Jul-07 18:00N 49°47' W 003°25'612.2
2018-Jul-07 17:30N 49°50' W 003°17'611.7
2018-Jul-07 17:00N 49°53' W 003°09'611.3
2018-Jul-07 16:30N 49°56' W 003°01'611.3
2018-Jul-07 15:59N 49°59' W 002°53'1910.4
2018-Jul-07 14:07N 50°04' W 002°24'14 9.8
2018-Jul-07 12:43N 50°07' W 002°03'210.1
2018-Jul-07 12:30N 50°08' W 002°00'510.5
2018-Jul-07 12:00N 50°09' W 001°52'510.9
2018-Jul-07 11:30N 50°11' W 001°44'611.4
2018-Jul-07 11:00N 50°12' W 001°36'612.0
2018-Jul-07 10:30N 50°14' W 001°27'612.7
2018-Jul-07 10:00N 50°15' W 001°17'713.2
2018-Jul-07 09:30N 50°17' W 001°07'714.2
2018-Jul-07 09:01N 50°19' W 000°56'713.8
2018-Jul-07 08:30N 50°21' W 000°46'713.3
2018-Jul-07 08:01N 50°22' W 000°36'713.3
2018-Jul-07 07:30N 50°24' W 000°26'612.8
2018-Jul-07 07:00N 50°26' W 000°16'612.4
2018-Jul-07 06:31N 50°27' W 000°07'611.9
2018-Jul-07 06:00N 50°29' E 000°02'611.6
2018-Jul-07 05:30N 50°30' E 000°11'611.2
2018-Jul-07 05:01N 50°32' E 000°20'510.8
2018-Jul-07 04:30N 50°33' E 000°28'510.7
2018-Jul-07 04:00N 50°35' E 000°36'510.6
2018-Jul-07 03:31N 50°38' E 000°43'510.8
2018-Jul-07 03:01N 50°41' E 000°50'510.8
2018-Jul-07 02:31N 50°44' E 000°57'611.2
2018-Jul-07 02:00N 50°47' E 001°04'611.8
2018-Jul-07 01:30N 50°51' E 001°12'612.5
2018-Jul-07 01:00N 50°55' E 001°19'713.5
2018-Jul-07 00:31N 50°60' E 001°26'713.5
2018-Jul-07 00:01N 51°05' E 001°34'713.3
2018-Jul-06 23:31N 51°09' E 001°41'612.6
2018-Jul-06 23:00N 51°14' E 001°48'612.0
2018-Jul-06 22:31N 51°19' E 001°53'611.6
2018-Jul-06 22:01N 51°24' E 001°57'511.0
2018-Jul-06 21:31N 51°29' E 002°02'510.9
2018-Jul-06 21:00N 51°33' E 002°08'510.7
2018-Jul-06 20:31N 51°37' E 002°14'510.6
2018-Jul-06 20:01N 51°40' E 002°20'510.4
2018-Jul-06 19:29N 51°45' E 002°26'510.3
2018-Jul-06 19:00N 51°48' E 002°31'510.5
2018-Jul-06 18:29N 51°52' E 002°37'510.6
2018-Jul-06 18:01N 51°56' E 002°43'611.0
2018-Jul-06 17:31N 52°00' E 002°48'510.1
2018-Jul-06 17:01N 52°00' E 002°57'611.0
2018-Jul-06 16:31N 51°56' E 003°03'611.2
2018-Jul-06 16:00N 51°52' E 003°08'611.0
2018-Jul-06 15:31N 51°47' E 003°13'5 9.4
2018-Jul-06 14:59N 51°46' E 003°21'0 0.0
2018-Jul-06 14:26N 51°46' E 003°21'0 0.0
2018-Jul-06 13:59N 51°46' E 003°21'0 0.0
2018-Jul-06 13:29N 51°46' E 003°21'0 0.0
2018-Jul-06 12:59N 51°46' E 003°21'0 0.0
2018-Jul-06 12:29N 51°46' E 003°21'0 0.0
2018-Jul-06 11:56N 51°46' E 003°21'0 0.0
2018-Jul-06 11:31N 51°46' E 003°21'0 0.0
2018-Jul-06 11:00N 51°46' E 003°21'0 0.1
2018-Jul-06 10:30N 51°46' E 003°21'0 0.1
2018-Jul-06 10:00N 51°46' E 003°21'0 0.0
2018-Jul-06 09:29N 51°46' E 003°21'0 0.0
2018-Jul-06 09:00N 51°46' E 003°21'0 0.0
2018-Jul-06 08:29N 51°46' E 003°21'0 0.0
2018-Jul-06 08:00N 51°46' E 003°21'  

Dump ship's entire track history